createdAt,value
2019-05-13T00:00:17.978Z,2.60
2019-05-13T00:02:44.053Z,1.87
2019-05-13T00:05:10.477Z,2.20
2019-05-13T00:07:36.313Z,2.42
2019-05-13T00:10:04.397Z,2.12
2019-05-13T00:12:30.620Z,2.52
2019-05-13T00:14:56.453Z,2.30
2019-05-13T00:17:23.674Z,2.62
2019-05-13T00:19:49.749Z,2.20
2019-05-13T00:22:15.609Z,2.12
2019-05-13T00:24:43.706Z,2.83
2019-05-13T00:27:09.633Z,2.40
2019-05-13T00:29:35.478Z,2.70
2019-05-13T00:32:01.303Z,2.62
2019-05-13T00:34:27.920Z,2.67
2019-05-13T00:37:07.357Z,2.65
2019-05-13T00:39:21.483Z,2.22
2019-05-13T00:41:47.447Z,2.65
2019-05-13T00:44:14.271Z,2.95
2019-05-13T00:46:40.307Z,2.92
2019-05-13T00:49:06.165Z,3.15
2019-05-13T00:51:33.767Z,2.80
2019-05-13T00:54:00.190Z,3.10
2019-05-13T00:56:26.411Z,3.33
2019-05-13T00:58:54.142Z,2.70
2019-05-13T01:01:19.982Z,3.02
2019-05-13T01:03:46.331Z,3.35
2019-05-13T01:06:13.322Z,3.00
2019-05-13T01:08:39.630Z,3.33
2019-05-13T01:11:05.836Z,3.08
2019-05-13T01:13:34.047Z,3.37
2019-05-13T01:15:59.334Z,2.67
2019-05-13T01:18:25.848Z,3.20
2019-05-13T01:20:53.657Z,3.22
2019-05-13T01:23:19.699Z,3.05
2019-05-13T01:25:45.921Z,4.22
2019-05-13T01:28:13.509Z,3.42
2019-05-13T01:30:39.431Z,3.40
2019-05-13T01:33:05.263Z,2.85
2019-05-13T01:35:33.953Z,3.00
2019-05-13T01:37:59.321Z,2.50
2019-05-13T01:40:25.753Z,2.85
2019-05-13T01:42:51.591Z,3.08
2019-05-13T01:45:19.249Z,3.02
2019-05-13T01:47:45.661Z,3.52
2019-05-13T01:50:14.034Z,3.20
2019-05-13T01:52:40.174Z,3.52
2019-05-13T01:55:06.403Z,3.40
2019-05-13T01:57:34.146Z,3.02
2019-05-13T01:59:59.889Z,2.90
2019-05-13T02:02:26.222Z,3.27
2019-05-13T02:04:53.236Z,3.52
2019-05-13T02:07:19.504Z,3.17
2019-05-13T02:09:46.130Z,3.17
2019-05-13T02:12:13.450Z,3.30
2019-05-13T02:14:39.434Z,3.25
2019-05-13T02:17:05.262Z,3.17
2019-05-13T02:19:33.556Z,3.40
2019-05-13T02:21:59.140Z,3.40
2019-05-13T02:24:25.011Z,3.22
2019-05-13T02:26:50.821Z,3.55
2019-05-13T02:29:16.652Z,3.60
2019-05-13T02:31:50.841Z,3.75
2019-05-13T02:34:13.340Z,3.75
2019-05-13T02:36:38.846Z,3.80
2019-05-13T02:39:05.720Z,4.30
2019-05-13T02:41:34.170Z,3.98
2019-05-13T02:44:03.231Z,3.50
2019-05-13T02:46:27.759Z,4.12
2019-05-13T02:48:53.592Z,4.12
2019-05-13T02:51:22.755Z,4.62
2019-05-13T02:53:47.708Z,4.22
2019-05-13T02:56:13.907Z,3.27
2019-05-13T02:58:42.846Z,4.33
2019-05-13T03:01:07.469Z,3.87
2019-05-13T03:03:33.293Z,4.42
2019-05-13T03:06:02.582Z,3.92
2019-05-13T03:08:44.650Z,3.55
2019-05-13T03:10:55.541Z,4.00
2019-05-13T03:13:23.428Z,3.85
2019-05-13T03:15:57.269Z,4.30
2019-05-13T03:18:23.094Z,4.17
2019-05-13T03:20:52.639Z,4.50
2019-05-13T03:23:16.591Z,4.60
2019-05-13T03:25:43.174Z,4.97
2019-05-13T03:28:09.245Z,4.58
2019-05-13T03:30:35.895Z,4.58
2019-05-13T03:33:10.311Z,4.67
2019-05-13T03:35:35.913Z,4.87
2019-05-13T03:37:57.455Z,4.97
2019-05-13T03:40:24.029Z,4.83
2019-05-13T03:42:53.522Z,4.65
2019-05-13T03:45:21.997Z,4.95
2019-05-13T03:47:48.596Z,4.50
2019-05-13T03:50:14.816Z,4.42
2019-05-13T03:52:43.133Z,5.08
2019-05-13T03:55:08.783Z,5.08
2019-05-13T03:57:35.131Z,4.78
2019-05-13T04:00:03.440Z,4.37
2019-05-13T04:02:32.586Z,4.80
2019-05-13T04:04:59.239Z,4.30
2019-05-13T04:07:25.339Z,4.35
2019-05-13T04:09:52.513Z,5.25
2019-05-13T04:12:18.421Z,5.30
2019-05-13T04:14:45.018Z,5.45
2019-05-13T04:17:12.487Z,4.85
2019-05-13T04:19:38.497Z,4.53
2019-05-13T04:22:04.361Z,5.33
2019-05-13T04:24:33.371Z,5.40
2019-05-13T04:26:58.361Z,4.60
2019-05-13T04:29:24.185Z,5.08
2019-05-13T04:31:53.169Z,5.03
2019-05-13T04:34:18.336Z,5.12
2019-05-13T04:36:44.311Z,5.33
2019-05-13T04:39:12.933Z,4.85
2019-05-13T04:41:38.446Z,4.58
2019-05-13T04:44:04.274Z,5.00
2019-05-13T04:46:32.827Z,5.05
2019-05-13T04:48:58.137Z,3.95
2019-05-13T04:51:24.001Z,3.87
2019-05-13T04:53:55.857Z,3.83
2019-05-13T04:56:18.286Z,3.67
2019-05-13T04:58:44.186Z,3.58
2019-05-13T05:01:14.003Z,3.58
2019-05-13T05:03:48.018Z,3.75
2019-05-13T05:06:22.731Z,3.67
2019-05-13T05:09:03.045Z,3.20
2019-05-13T05:11:32.160Z,3.58
2019-05-13T05:14:16.224Z,3.33
2019-05-13T05:16:45.048Z,3.67
2019-05-13T05:19:32.031Z,4.05
2019-05-13T05:22:13.490Z,3.77
2019-05-13T05:24:44.679Z,3.95
2019-05-13T05:27:12.426Z,4.20
2019-05-13T05:29:46.254Z,3.95
2019-05-13T05:32:23.189Z,3.77
2019-05-13T05:34:54.402Z,3.90
2019-05-13T05:37:25.550Z,4.10
2019-05-13T05:39:52.919Z,3.45
2019-05-13T05:42:18.896Z,3.77
2019-05-13T05:44:44.817Z,4.17
2019-05-13T05:47:11.318Z,4.25
2019-05-13T05:49:37.545Z,4.58
2019-05-13T05:52:04.425Z,4.17
2019-05-13T05:54:31.754Z,4.20
2019-05-13T05:56:57.921Z,4.80
2019-05-13T05:59:23.811Z,4.40
2019-05-13T06:01:52.350Z,4.05
2019-05-13T06:04:17.733Z,3.75
2019-05-13T06:06:43.625Z,4.37
2019-05-13T06:09:12.199Z,4.60
2019-05-13T06:11:38.089Z,3.87
2019-05-13T06:14:04.295Z,3.70
2019-05-13T06:16:32.029Z,3.80
2019-05-13T06:18:58.397Z,4.03
2019-05-13T06:21:24.618Z,4.22
2019-05-13T06:23:51.850Z,3.67
2019-05-13T06:26:17.883Z,3.90
2019-05-13T06:28:44.419Z,4.10
2019-05-13T06:31:12.418Z,4.05
2019-05-13T06:33:37.933Z,3.80
2019-05-13T06:36:04.043Z,4.80
2019-05-13T06:38:31.607Z,4.22
2019-05-13T06:41:03.511Z,4.00
2019-05-13T06:43:26.188Z,3.65
2019-05-13T06:45:52.632Z,4.30
2019-05-13T06:48:18.471Z,3.65
2019-05-13T06:50:44.295Z,4.08
2019-05-13T06:53:12.453Z,4.47
2019-05-13T06:55:38.373Z,3.90
2019-05-13T06:58:04.266Z,3.60
2019-05-13T07:00:34.777Z,3.50
2019-05-13T07:02:58.462Z,3.50
2019-05-13T07:05:24.932Z,3.20
2019-05-13T07:07:51.398Z,3.35
2019-05-13T07:10:17.794Z,3.33
2019-05-13T07:12:44.025Z,3.20
2019-05-13T07:15:11.609Z,4.00
2019-05-13T07:17:37.694Z,3.00
2019-05-13T07:20:05.009Z,3.42
2019-05-13T07:22:32.136Z,3.27
2019-05-13T07:24:58.546Z,4.03
2019-05-13T07:27:24.702Z,3.70
2019-05-13T07:29:53.593Z,3.55
2019-05-13T07:32:18.997Z,3.15
2019-05-13T07:34:44.869Z,3.70
2019-05-13T07:37:11.369Z,3.15
2019-05-13T07:39:37.861Z,3.37
2019-05-13T07:42:05.831Z,3.00
2019-05-13T07:44:32.396Z,3.20
2019-05-13T07:47:02.910Z,3.52
2019-05-13T07:49:27.944Z,3.05
2019-05-13T07:51:53.771Z,2.80
2019-05-13T07:54:21.879Z,2.50
2019-05-13T07:56:47.896Z,2.52
2019-05-13T07:59:13.720Z,2.77
2019-05-13T08:01:41.692Z,3.00
2019-05-13T08:04:21.168Z,3.37
2019-05-13T08:06:35.250Z,3.10
2019-05-13T08:09:01.890Z,3.25
2019-05-13T08:11:28.118Z,3.50
2019-05-13T08:13:54.351Z,3.08
2019-05-13T08:16:22.304Z,3.15
2019-05-13T08:18:47.846Z,3.00
2019-05-13T08:21:14.230Z,3.27
2019-05-13T08:23:41.744Z,2.92
2019-05-13T08:26:08.324Z,2.77
2019-05-13T08:28:34.159Z,2.70
2019-05-13T08:31:01.984Z,3.47
2019-05-13T08:33:27.664Z,2.85
2019-05-13T08:35:58.550Z,2.55
2019-05-13T08:38:23.028Z,2.47
2019-05-13T08:40:51.153Z,3.05
2019-05-13T08:43:16.750Z,2.60
2019-05-13T08:45:42.765Z,2.65
2019-05-13T08:48:08.619Z,3.05
2019-05-13T08:50:34.477Z,2.77
2019-05-13T08:53:01.777Z,2.80
2019-05-13T08:55:28.394Z,2.62
2019-05-13T08:57:55.223Z,3.05
2019-05-13T09:00:28.986Z,2.85
2019-05-13T09:02:55.307Z,2.22
2019-05-13T09:05:21.610Z,2.00
2019-05-13T09:07:47.720Z,2.75
2019-05-13T09:10:13.966Z,2.10
2019-05-13T09:12:41.016Z,2.37
2019-05-13T09:15:07.525Z,2.33
2019-05-13T09:17:33.299Z,2.00
2019-05-13T09:19:59.164Z,1.75
2019-05-13T09:22:24.994Z,1.55
2019-05-13T09:24:53.041Z,1.47
2019-05-13T09:27:18.983Z,1.82
2019-05-13T09:29:44.810Z,2.00
2019-05-13T09:32:12.144Z,1.52
2019-05-13T09:34:38.903Z,1.42
2019-05-13T09:37:05.134Z,1.80
2019-05-13T09:39:32.330Z,2.00
2019-05-13T09:41:58.831Z,1.95
2019-05-13T09:44:24.762Z,1.62
2019-05-13T09:46:51.687Z,1.77
2019-05-13T09:49:20.199Z,1.60
2019-05-13T09:51:45.957Z,1.70
2019-05-13T09:54:12.420Z,2.20
2019-05-13T09:56:38.261Z,1.62
2019-05-13T09:59:04.465Z,1.70
2019-05-13T10:01:32.032Z,1.62
2019-05-13T10:03:58.350Z,1.87
2019-05-13T10:06:24.804Z,1.80
2019-05-13T10:08:52.666Z,1.57
2019-05-13T10:11:18.329Z,1.90
2019-05-13T10:13:44.686Z,1.60
2019-05-13T10:16:12.430Z,1.57
2019-05-13T10:18:38.785Z,1.40
2019-05-13T10:21:04.617Z,1.60
2019-05-13T10:23:32.988Z,1.47
2019-05-13T10:26:03.270Z,1.50
2019-05-13T10:28:29.052Z,1.42
2019-05-13T10:30:55.066Z,1.62
2019-05-13T10:33:22.125Z,1.55
2019-05-13T10:35:51.821Z,1.87
2019-05-13T10:38:17.895Z,1.60
2019-05-13T10:40:43.743Z,1.42
2019-05-13T10:43:28.795Z,1.98
2019-05-13T10:45:38.484Z,2.12
2019-05-13T10:48:10.224Z,1.72
2019-05-13T10:50:32.474Z,1.60
2019-05-13T10:52:58.305Z,1.85
2019-05-13T10:55:24.139Z,1.47
2019-05-13T10:57:51.354Z,1.75
2019-05-13T11:00:19.485Z,1.87
2019-05-13T11:02:45.363Z,1.57
2019-05-13T11:05:12.281Z,1.52
2019-05-13T11:07:38.662Z,1.57
2019-05-13T11:10:04.874Z,1.90
2019-05-13T11:12:33.370Z,1.65
2019-05-13T11:14:59.360Z,1.30
2019-05-13T11:17:30.960Z,2.15
2019-05-13T11:19:53.240Z,1.40
2019-05-13T11:22:19.118Z,1.15
2019-05-13T11:24:44.950Z,1.47
2019-05-13T11:27:12.012Z,1.65
2019-05-13T11:29:38.029Z,2.00
2019-05-13T11:32:04.262Z,1.45
2019-05-13T11:34:32.913Z,1.30
2019-05-13T11:36:58.054Z,1.60
2019-05-13T11:39:23.916Z,1.45
2019-05-13T11:41:50.341Z,1.62
2019-05-13T11:44:17.089Z,1.20
2019-05-13T11:46:43.369Z,1.55
2019-05-13T11:49:11.768Z,1.72
2019-05-13T11:51:37.146Z,1.50
2019-05-13T11:54:03.753Z,1.70
2019-05-13T11:56:33.440Z,1.35
2019-05-13T11:58:57.612Z,1.60
2019-05-13T12:01:23.581Z,1.42
2019-05-13T12:03:49.413Z,1.92
2019-05-13T12:06:15.251Z,1.70
2019-05-13T12:08:49.834Z,1.82
2019-05-13T12:11:08.795Z,1.60
2019-05-13T12:13:35.187Z,1.42
2019-05-13T12:16:03.598Z,1.87
2019-05-13T12:18:28.973Z,2.00
2019-05-13T12:20:54.840Z,1.62
2019-05-13T12:23:20.757Z,1.82
2019-05-13T12:25:46.594Z,2.02
2019-05-13T12:28:12.525Z,2.40
2019-05-13T12:30:38.315Z,2.22
2019-05-13T12:33:04.917Z,2.25
2019-05-13T12:35:32.837Z,2.27
2019-05-13T12:37:58.540Z,2.22
2019-05-13T12:40:24.397Z,2.00
2019-05-13T12:42:53.987Z,2.58
2019-05-13T12:45:18.471Z,2.25
2019-05-13T12:47:44.305Z,2.42
2019-05-13T12:50:13.506Z,2.08
2019-05-13T12:52:38.545Z,2.20
2019-05-13T12:55:04.958Z,2.50
2019-05-13T12:57:32.472Z,2.08
2019-05-13T13:00:02.086Z,2.47
2019-05-13T13:02:27.333Z,2.10
2019-05-13T13:05:13.228Z,2.40
2019-05-13T13:07:21.573Z,2.00
2019-05-13T13:09:48.364Z,2.75
2019-05-13T13:12:14.302Z,2.40
2019-05-13T13:14:44.246Z,1.98
2019-05-13T13:17:08.330Z,2.33
2019-05-13T13:19:34.330Z,2.10
2019-05-13T13:22:04.673Z,2.22
2019-05-13T13:24:31.651Z,2.37
2019-05-13T13:26:56.938Z,2.10
2019-05-13T13:29:23.283Z,2.62
2019-05-13T13:31:49.154Z,2.45
2019-05-13T13:34:18.276Z,2.47
2019-05-13T13:36:46.074Z,2.08
2019-05-13T13:39:13.759Z,1.90
2019-05-13T13:41:37.906Z,2.35
2019-05-13T13:44:05.542Z,2.40
2019-05-13T13:46:42.028Z,2.52
2019-05-13T13:48:59.766Z,2.40
2019-05-13T13:51:26.938Z,2.47
2019-05-13T13:53:56.396Z,2.10
2019-05-13T13:56:25.256Z,2.27
2019-05-13T13:58:49.118Z,2.65
2019-05-13T14:01:20.433Z,2.30
2019-05-13T14:03:46.000Z,2.47
2019-05-13T14:06:12.632Z,2.12
2019-05-13T14:08:38.534Z,2.20
2019-05-13T14:11:04.441Z,1.95
2019-05-13T14:13:32.339Z,1.60
2019-05-13T14:15:57.937Z,1.82
2019-05-13T14:18:26.882Z,2.12
2019-05-13T14:20:52.875Z,1.70
2019-05-13T14:23:21.328Z,1.60
2019-05-13T14:25:47.177Z,2.25
2019-05-13T14:28:17.322Z,1.98
2019-05-13T14:30:42.231Z,2.12
2019-05-13T14:33:08.167Z,1.92
2019-05-13T14:35:34.475Z,1.65
2019-05-13T14:38:02.522Z,2.12
2019-05-13T14:40:27.981Z,2.00
2019-05-13T14:42:54.280Z,2.12
2019-05-13T14:45:23.504Z,2.10
2019-05-13T14:47:47.795Z,2.12
2019-05-13T14:50:13.882Z,2.12
2019-05-13T14:52:41.605Z,2.20
2019-05-13T14:55:08.540Z,2.00
2019-05-13T14:57:34.773Z,2.05
2019-05-13T15:00:02.445Z,2.40
2019-05-13T15:02:29.555Z,1.98
2019-05-13T15:04:56.738Z,2.37
2019-05-13T15:07:23.062Z,2.05
2019-05-13T15:09:51.307Z,2.33
2019-05-13T15:12:16.808Z,2.27
2019-05-13T15:14:43.095Z,2.22
2019-05-13T15:17:09.207Z,2.12
2019-05-13T15:19:35.034Z,2.15
2019-05-13T15:22:01.497Z,2.47
2019-05-13T15:24:27.602Z,2.80
2019-05-13T15:26:53.434Z,2.58
2019-05-13T15:29:22.109Z,2.50
2019-05-13T15:31:47.922Z,2.00
2019-05-13T15:34:14.153Z,2.30
2019-05-13T15:36:41.985Z,2.20
2019-05-13T15:39:07.702Z,2.62
2019-05-13T15:41:34.146Z,2.10
2019-05-13T15:44:03.178Z,2.47
2019-05-13T15:46:28.570Z,1.98
2019-05-13T15:48:54.417Z,2.35
2019-05-13T15:51:22.146Z,2.45
2019-05-13T15:53:48.038Z,2.30
2019-05-13T15:56:13.884Z,2.20
2019-05-13T15:58:44.203Z,2.15
2019-05-13T16:01:08.042Z,3.02
2019-05-13T16:03:33.919Z,2.30
2019-05-13T16:06:01.678Z,2.20
2019-05-13T16:08:27.394Z,2.52
2019-05-13T16:10:53.814Z,1.90
2019-05-13T16:13:22.072Z,2.27
2019-05-13T16:15:47.326Z,1.90
2019-05-13T16:18:13.409Z,2.08
2019-05-13T16:20:42.840Z,1.95
2019-05-13T16:23:07.224Z,2.33
2019-05-13T16:25:33.060Z,2.08
2019-05-13T16:28:01.199Z,2.20
2019-05-13T16:30:26.929Z,2.10
2019-05-13T16:32:52.757Z,2.65
2019-05-13T16:35:20.992Z,2.35
2019-05-13T16:37:46.904Z,2.10
2019-05-13T16:40:13.375Z,2.27
2019-05-13T16:42:42.044Z,2.00
2019-05-13T16:45:07.865Z,1.87
2019-05-13T16:47:34.089Z,2.20
2019-05-13T16:50:02.564Z,2.00
2019-05-13T16:52:28.418Z,2.30
2019-05-13T16:54:54.253Z,2.08
2019-05-13T16:57:20.653Z,2.00
2019-05-13T16:59:46.524Z,1.95
2019-05-13T17:02:12.753Z,2.20
2019-05-13T17:04:41.333Z,2.00
2019-05-13T17:07:06.896Z,2.20
2019-05-13T17:09:33.333Z,2.20
2019-05-13T17:12:01.244Z,2.40
2019-05-13T17:14:27.461Z,2.22
2019-05-13T17:16:53.697Z,1.95
2019-05-13T17:19:19.578Z,2.05
2019-05-13T17:21:45.444Z,2.20
2019-05-13T17:24:12.481Z,2.08
2019-05-13T17:26:39.041Z,1.95
2019-05-13T17:29:05.274Z,1.77
2019-05-13T17:31:32.527Z,2.37
2019-05-13T17:33:58.594Z,2.12
2019-05-13T17:36:24.418Z,2.10
2019-05-13T17:38:50.286Z,1.82
2019-05-13T17:41:16.550Z,1.95
2019-05-13T17:43:42.862Z,1.80
2019-05-13T17:46:08.694Z,1.80
2019-05-13T17:48:34.560Z,1.70
2019-05-13T17:51:01.321Z,2.02
2019-05-13T17:53:28.118Z,1.90
2019-05-13T17:55:53.982Z,1.98
2019-05-13T17:58:21.980Z,2.60
2019-05-13T18:00:48.107Z,1.90
2019-05-13T18:03:13.977Z,1.72
2019-05-13T18:05:42.076Z,1.90
2019-05-13T18:08:11.062Z,2.12
2019-05-13T18:10:36.277Z,1.77
2019-05-13T18:13:02.119Z,2.00
2019-05-13T18:15:28.357Z,2.05
2019-05-13T18:17:54.693Z,1.90
2019-05-13T18:20:21.718Z,1.90
2019-05-13T18:22:47.990Z,1.85
2019-05-13T18:25:14.327Z,1.60
2019-05-13T18:27:41.549Z,1.92
2019-05-13T18:30:07.973Z,2.05
2019-05-13T18:32:34.114Z,1.62
2019-05-13T18:35:01.656Z,1.80
2019-05-13T18:37:27.667Z,1.80
2019-05-13T18:39:53.498Z,1.75
2019-05-13T18:42:19.343Z,1.45
2019-05-13T18:44:45.983Z,1.98
2019-05-13T18:47:12.278Z,1.50
2019-05-13T18:49:38.597Z,1.77
2019-05-13T18:52:05.084Z,2.12
2019-05-13T18:54:31.707Z,2.08
2019-05-13T18:56:57.934Z,1.80
2019-05-13T18:59:24.170Z,1.77
2019-05-13T19:01:52.878Z,1.70
2019-05-13T19:04:18.075Z,1.77
2019-05-13T19:06:44.178Z,2.00
2019-05-13T19:09:11.277Z,1.80
2019-05-13T19:11:37.413Z,1.80
2019-05-13T19:14:03.263Z,1.50
2019-05-13T19:16:31.774Z,2.15
2019-05-13T19:19:10.558Z,1.95
2019-05-13T19:21:24.918Z,1.62
2019-05-13T19:23:51.317Z,1.65
2019-05-13T19:26:17.227Z,1.87
2019-05-13T19:28:43.095Z,1.70
2019-05-13T19:31:11.411Z,1.65
2019-05-13T19:33:37.812Z,1.62
2019-05-13T19:36:03.648Z,2.17
2019-05-13T19:38:31.966Z,2.00
2019-05-13T19:40:58.314Z,2.35
2019-05-13T19:43:24.158Z,2.55
2019-05-13T19:45:51.932Z,1.95
2019-05-13T19:48:17.727Z,1.90
2019-05-13T19:50:43.913Z,1.92
2019-05-13T19:53:12.149Z,2.30
2019-05-13T19:55:37.850Z,2.08
2019-05-13T19:58:03.743Z,1.67
2019-05-13T20:00:31.549Z,2.00
2019-05-13T20:02:57.274Z,2.47
2019-05-13T20:05:23.280Z,2.10
2019-05-13T20:07:49.199Z,2.10
2019-05-13T20:10:16.972Z,1.98
2019-05-13T20:12:43.170Z,2.42
2019-05-13T20:15:11.763Z,2.35
2019-05-13T20:17:37.899Z,2.77
2019-05-13T20:20:05.770Z,2.72
2019-05-13T20:22:31.817Z,2.40
2019-05-13T20:24:58.010Z,2.35
2019-05-13T20:27:23.876Z,2.58
2019-05-13T20:29:51.198Z,2.30
2019-05-13T20:32:18.218Z,2.52
2019-05-13T20:34:44.503Z,2.40
2019-05-13T20:37:12.380Z,2.60
2019-05-13T20:39:38.734Z,2.37
2019-05-13T20:42:04.998Z,2.67
2019-05-13T20:44:31.508Z,2.58
2019-05-13T20:46:57.991Z,2.80
2019-05-13T20:49:24.203Z,2.30
2019-05-13T20:51:51.692Z,2.55
2019-05-13T20:54:18.102Z,2.77
2019-05-13T20:56:44.320Z,2.65
2019-05-13T20:59:10.181Z,2.20
2019-05-13T21:01:36.173Z,2.52
2019-05-13T21:04:02.004Z,2.12
2019-05-13T21:06:28.411Z,2.30
2019-05-13T21:08:54.313Z,1.95
2019-05-13T21:11:20.133Z,2.30
2019-05-13T21:13:45.959Z,2.65
2019-05-13T21:16:12.199Z,2.22
2019-05-13T21:18:37.962Z,2.35
2019-05-13T21:21:03.939Z,2.50
2019-05-13T21:23:31.276Z,2.20
2019-05-13T21:25:57.435Z,2.00
2019-05-13T21:28:23.604Z,2.20
2019-05-13T21:30:51.411Z,2.25
2019-05-13T21:33:17.508Z,2.40
2019-05-13T21:35:43.953Z,2.08
2019-05-13T21:38:11.297Z,1.80
2019-05-13T21:40:37.689Z,2.30
2019-05-13T21:43:03.533Z,2.50
2019-05-13T21:45:30.087Z,2.20
2019-05-13T21:47:56.310Z,1.92
2019-05-13T21:50:33.220Z,2.00
2019-05-13T21:52:51.615Z,2.47
2019-05-13T21:55:17.754Z,2.00
2019-05-13T21:57:43.613Z,2.10
2019-05-13T22:00:11.358Z,2.35
2019-05-13T22:02:37.726Z,2.52
2019-05-13T22:05:03.562Z,2.00
2019-05-13T22:07:31.460Z,2.00
2019-05-13T22:09:57.528Z,1.95
2019-05-13T22:12:23.369Z,2.15
2019-05-13T22:14:51.579Z,1.90
2019-05-13T22:17:17.281Z,2.35
2019-05-13T22:19:43.649Z,2.22
2019-05-13T22:22:11.586Z,2.30
2019-05-13T22:24:37.516Z,2.08
2019-05-13T22:27:03.346Z,2.00
2019-05-13T22:29:32.007Z,2.30
2019-05-13T22:31:58.075Z,1.92
2019-05-13T22:34:23.951Z,1.98
2019-05-13T22:36:51.682Z,2.08
2019-05-13T22:39:17.415Z,1.90
2019-05-13T22:41:43.710Z,1.92
2019-05-13T22:44:11.666Z,2.20
2019-05-13T22:46:37.823Z,2.10
2019-05-13T22:49:04.042Z,2.30
2019-05-13T22:51:32.010Z,1.87
2019-05-13T22:53:57.897Z,2.27
2019-05-13T22:56:23.749Z,1.92
2019-05-13T22:58:51.665Z,2.10
2019-05-13T23:01:18.429Z,2.02
2019-05-13T23:03:44.306Z,1.92
2019-05-13T23:06:12.049Z,1.72
2019-05-13T23:08:38.149Z,2.00
2019-05-13T23:11:04.016Z,1.90
2019-05-13T23:13:31.286Z,1.90
2019-05-13T23:15:57.846Z,1.62
2019-05-13T23:18:24.042Z,2.00
2019-05-13T23:20:51.562Z,1.80
2019-05-13T23:23:17.959Z,2.05
2019-05-13T23:25:44.131Z,1.60
2019-05-13T23:28:11.235Z,1.75
2019-05-13T23:30:37.690Z,1.62
2019-05-13T23:33:03.526Z,2.10
2019-05-13T23:35:32.081Z,2.10
2019-05-13T23:37:57.491Z,2.25
2019-05-13T23:40:23.962Z,1.50
2019-05-13T23:42:51.755Z,1.90
2019-05-13T23:45:17.514Z,1.85
2019-05-13T23:47:43.797Z,1.98
2019-05-13T23:50:09.630Z,2.20
2019-05-13T23:52:35.457Z,2.00
2019-05-13T23:55:02.526Z,2.80
2019-05-13T23:57:31.278Z,1.80
2019-05-13T23:59:56.955Z,2.30
